MOL Explorer — 3EKT8 — position and weather

sailwx.info

Track history (hours):
 
Tides and Currents Weather Stations Pressure Air Temp Water Temp Dewpoint Dewpoint Depression Visibility Wind Speed Wind Dir Waves Ship Positions

MOL Explorer

Last reported at 2015-Jun-28 00:34 UTC. Time now 2015-Jul-01 04:53 UTC.
Position N 35°20' E 140°57'.

Length 293 m; draft 12.4 m.

Type: Ship (hazmat cat A). MMSI: 372827000.

Date/timePositionNaut miles runAvg speedWind from/ knotsBaromVisibWave heightAir tempDewpointWater temp
2015-Jun-28 00:34N 35°20' E 140°57'1818.5
2015-Jun-27 23:33N 35°10' E 140°37'1818.3
2015-Jun-27 22:34N 35°00' E 140°19'1818.1
2015-Jun-27 21:34N 34°51' E 139°60'1616.2
2015-Jun-27 20:33N 34°57' E 139°42'1616.5
2015-Jun-27 19:34N 35°13' E 139°46'1211.7
2015-Jun-27 18:34N 35°25' E 139°43'1110.9
2015-Jun-27 17:33N 35°35' E 139°48'2 1.9
2015-Jun-27 16:31N 35°36' E 139°46'0 0.0
2015-Jun-27 15:31N 35°36' E 139°46'0 0.0
2015-Jun-27 14:31N 35°36' E 139°46'0 0.0
2015-Jun-27 13:31N 35°36' E 139°46'0 0.0
2015-Jun-27 12:31N 35°36' E 139°46'0 0.0
2015-Jun-27 11:31N 35°36' E 139°46'0 0.0
2015-Jun-27 10:31N 35°36' E 139°46'0 0.0
2015-Jun-27 09:25N 35°36' E 139°46'0 0.0
2015-Jun-27 08:31N 35°36' E 139°46'0 0.0
2015-Jun-27 07:28N 35°36' E 139°46'0 0.0
2015-Jun-27 06:28N 35°36' E 139°46'0 0.0
2015-Jun-27 05:31N 35°36' E 139°46'0 0.0
2015-Jun-27 04:16N 35°36' E 139°46'0 0.0
2015-Jun-27 03:33N 35°36' E 139°46'8 8.1
2015-Jun-27 02:33N 35°30' E 139°53'1414.0
2015-Jun-27 01:33N 35°18' E 139°44'1111.3
2015-Jun-27 00:33N 35°07' E 139°46'1111.1
2015-Jun-26 23:33N 34°57' E 139°41'1212.0
2015-Jun-26 22:32N 34°45' E 139°38'238 4.8
2015-Jun-24 20:33N 33°57' E 134°55'1515.2
2015-Jun-24 19:34N 34°12' E 134°58'1515.0
2015-Jun-24 18:33N 34°26' E 135°04'1615.9
2015-Jun-24 17:33N 34°39' E 135°15'0 0.4
2015-Jun-24 16:22N 34°39' E 135°15'0 0.0
2015-Jun-24 15:22N 34°39' E 135°15'0 0.0
2015-Jun-24 14:28N 34°39' E 135°15'0 0.0
2015-Jun-24 13:28N 34°39' E 135°15'0 0.0
2015-Jun-24 12:23N 34°39' E 135°15'0 0.0
2015-Jun-24 11:28N 34°39' E 135°15'0 0.0
2015-Jun-24 10:10N 34°39' E 135°15'0 0.0
2015-Jun-24 09:22N 34°39' E 135°15'0 0.0
2015-Jun-24 08:28N 34°39' E 135°15'0 0.0
2015-Jun-24 07:28N 34°39' E 135°15'0 0.0
2015-Jun-24 06:33N 34°39' E 135°15'4 4.0
2015-Jun-24 05:33N 34°35' E 135°16'1615.7
2015-Jun-24 04:33N 34°23' E 135°04'1514.8
2015-Jun-24 03:33N 34°08' E 135°00'10 9.7
2015-Jun-24 02:32N 33°59' E 134°59'245 7.9
2015-Jun-22 19:34N 35°06' E 139°45'9 9.1
2015-Jun-22 18:34N 34°58' E 139°41'6 6.0
2015-Jun-22 17:33N 34°52' E 139°45'1715.5
2015-Jun-22 16:27N 34°54' E 140°05'1618.0
2015-Jun-22 15:33N 35°03' E 140°22'1716.6
2015-Jun-22 14:33N 35°11' E 140°39'1515.3
2015-Jun-22 13:33N 35°19' E 140°55'1614.6
2015-Jun-22 12:29N 35°28' E 141°11'1314.2
2015-Jun-22 11:32N 35°35' E 141°25'2914.5
2015-Jun-22 09:32N 35°50' E 141°55'  
Track history (hours):
 
Tides and Currents Weather Stations Pressure Air Temp Water Temp Dewpoint Dewpoint Depression Visibility Wind Speed Wind Dir Waves Ship Positions

MOL Explorer

Last reported at 2015-Jun-28 00:34 UTC. Time now 2015-Jul-01 04:53 UTC.
Position N 35°20' E 140°57'.

Length 293 m; draft 12.4 m.

Type: Ship (hazmat cat A). MMSI: 372827000.

Date/timePositionNaut miles runAvg speedWind from/ knotsBaromVisibWave heightAir tempDewpointWater temp
2015-Jun-28 00:34N 35°20' E 140°57'1818.5
2015-Jun-27 23:33N 35°10' E 140°37'1818.3
2015-Jun-27 22:34N 35°00' E 140°19'1818.1
2015-Jun-27 21:34N 34°51' E 139°60'1616.2
2015-Jun-27 20:33N 34°57' E 139°42'1616.5
2015-Jun-27 19:34N 35°13' E 139°46'1211.7
2015-Jun-27 18:34N 35°25' E 139°43'1110.9
2015-Jun-27 17:33N 35°35' E 139°48'2 1.9
2015-Jun-27 16:31N 35°36' E 139°46'0 0.0
2015-Jun-27 15:31N 35°36' E 139°46'0 0.0
2015-Jun-27 14:31N 35°36' E 139°46'0 0.0
2015-Jun-27 13:31N 35°36' E 139°46'0 0.0
2015-Jun-27 12:31N 35°36' E 139°46'0 0.0
2015-Jun-27 11:31N 35°36' E 139°46'0 0.0
2015-Jun-27 10:31N 35°36' E 139°46'0 0.0
2015-Jun-27 09:25N 35°36' E 139°46'0 0.0
2015-Jun-27 08:31N 35°36' E 139°46'0 0.0
2015-Jun-27 07:28N 35°36' E 139°46'0 0.0
2015-Jun-27 06:28N 35°36' E 139°46'0 0.0
2015-Jun-27 05:31N 35°36' E 139°46'0 0.0
2015-Jun-27 04:16N 35°36' E 139°46'0 0.0
2015-Jun-27 03:33N 35°36' E 139°46'8 8.1
2015-Jun-27 02:33N 35°30' E 139°53'1414.0
2015-Jun-27 01:33N 35°18' E 139°44'1111.3
2015-Jun-27 00:33N 35°07' E 139°46'1111.1
2015-Jun-26 23:33N 34°57' E 139°41'1212.0
2015-Jun-26 22:32N 34°45' E 139°38'238 4.8
2015-Jun-24 20:33N 33°57' E 134°55'1515.2
2015-Jun-24 19:34N 34°12' E 134°58'1515.0
2015-Jun-24 18:33N 34°26' E 135°04'1615.9
2015-Jun-24 17:33N 34°39' E 135°15'0 0.4
2015-Jun-24 16:22N 34°39' E 135°15'0 0.0
2015-Jun-24 15:22N 34°39' E 135°15'0 0.0
2015-Jun-24 14:28N 34°39' E 135°15'0 0.0
2015-Jun-24 13:28N 34°39' E 135°15'0 0.0
2015-Jun-24 12:23N 34°39' E 135°15'0 0.0
2015-Jun-24 11:28N 34°39' E 135°15'0 0.0
2015-Jun-24 10:10N 34°39' E 135°15'0 0.0
2015-Jun-24 09:22N 34°39' E 135°15'0 0.0
2015-Jun-24 08:28N 34°39' E 135°15'0 0.0
2015-Jun-24 07:28N 34°39' E 135°15'0 0.0
2015-Jun-24 06:33N 34°39' E 135°15'4 4.0
2015-Jun-24 05:33N 34°35' E 135°16'1615.7
2015-Jun-24 04:33N 34°23' E 135°04'1514.8
2015-Jun-24 03:33N 34°08' E 135°00'10 9.7
2015-Jun-24 02:32N 33°59' E 134°59'245 7.9
2015-Jun-22 19:34N 35°06' E 139°45'9 9.1
2015-Jun-22 18:34N 34°58' E 139°41'6 6.0
2015-Jun-22 17:33N 34°52' E 139°45'1715.5
2015-Jun-22 16:27N 34°54' E 140°05'1618.0
2015-Jun-22 15:33N 35°03' E 140°22'1716.6
2015-Jun-22 14:33N 35°11' E 140°39'1515.3
2015-Jun-22 13:33N 35°19' E 140°55'1614.6
2015-Jun-22 12:29N 35°28' E 141°11'1314.2
2015-Jun-22 11:32N 35°35' E 141°25'2914.5
2015-Jun-22 09:32N 35°50' E 141°55'  

Dump ship's entire track history